sensor_id;sensor_type;location;lat;lon;timestamp;temperature;humidity
43920;DHT22;29578;51.946;5.874;2022-09-03T00:02:44;18.00;49.30
43920;DHT22;29578;51.946;5.874;2022-09-03T00:05:18;17.90;49.30
43920;DHT22;29578;51.946;5.874;2022-09-03T00:08:10;17.90;49.30
43920;DHT22;29578;51.946;5.874;2022-09-03T00:11:09;17.90;49.40
43920;DHT22;29578;51.946;5.874;2022-09-03T00:13:39;17.90;49.40
43920;DHT22;29578;51.946;5.874;2022-09-03T00:16:10;17.90;49.40
43920;DHT22;29578;51.946;5.874;2022-09-03T00:18:43;17.90;49.50
43920;DHT22;29578;51.946;5.874;2022-09-03T00:21:16;17.80;49.50
43920;DHT22;29578;51.946;5.874;2022-09-03T00:23:47;17.70;49.50
43920;DHT22;29578;51.946;5.874;2022-09-03T00:26:19;17.80;49.60
43920;DHT22;29578;51.946;5.874;2022-09-03T00:28:53;17.80;49.70
43920;DHT22;29578;51.946;5.874;2022-09-03T00:31:24;17.70;49.70
43920;DHT22;29578;51.946;5.874;2022-09-03T00:33:57;17.70;49.70
43920;DHT22;29578;51.946;5.874;2022-09-03T00:36:44;17.70;49.80
43920;DHT22;29578;51.946;5.874;2022-09-03T00:39:13;17.70;49.80
43920;DHT22;29578;51.946;5.874;2022-09-03T00:42:15;17.70;49.90
43920;DHT22;29578;51.946;5.874;2022-09-03T00:44:53;17.60;50.00
43920;DHT22;29578;51.946;5.874;2022-09-03T00:47:40;17.60;50.00
43920;DHT22;29578;51.946;5.874;2022-09-03T00:50:25;17.60;50.20
43920;DHT22;29578;51.946;5.874;2022-09-03T00:53:10;17.60;50.20
43920;DHT22;29578;51.946;5.874;2022-09-03T00:56:22;17.50;50.30
43920;DHT22;29578;51.946;5.874;2022-09-03T00:58:52;17.50;50.30
43920;DHT22;29578;51.946;5.874;2022-09-03T01:01:27;17.40;50.40
43920;DHT22;29578;51.946;5.874;2022-09-03T01:04:21;17.40;50.50
43920;DHT22;29578;51.946;5.874;2022-09-03T01:07:02;17.40;50.50
43920;DHT22;29578;51.946;5.874;2022-09-03T01:09:42;17.30;50.50
43920;DHT22;29578;51.946;5.874;2022-09-03T01:15:29;17.30;50.60
43920;DHT22;29578;51.946;5.874;2022-09-03T01:18:23;17.30;50.70
43920;DHT22;29578;51.946;5.874;2022-09-03T01:21:10;17.20;50.80
43920;DHT22;29578;51.946;5.874;2022-09-03T01:24:02;17.20;50.80
43920;DHT22;29578;51.946;5.874;2022-09-03T01:26:54;17.10;50.80
43920;DHT22;29578;51.946;5.874;2022-09-03T01:29:50;17.10;50.90
43920;DHT22;29578;51.946;5.874;2022-09-03T01:32:30;17.10;50.90
43920;DHT22;29578;51.946;5.874;2022-09-03T01:35:17;17.10;51.00
43920;DHT22;29578;51.946;5.874;2022-09-03T01:38:00;17.00;51.00
43920;DHT22;29578;51.946;5.874;2022-09-03T01:40:42;17.00;51.00
43920;DHT22;29578;51.946;5.874;2022-09-03T01:43:33;16.90;51.00
43920;DHT22;29578;51.946;5.874;2022-09-03T01:46:12;17.00;51.20
43920;DHT22;29578;51.946;5.874;2022-09-03T01:48:51;17.00;51.20
43920;DHT22;29578;51.946;5.874;2022-09-03T01:51:23;17.00;51.20
43920;DHT22;29578;51.946;5.874;2022-09-03T01:57:06;16.90;51.30
43920;DHT22;29578;51.946;5.874;2022-09-03T01:59:42;16.90;51.30
43920;DHT22;29578;51.946;5.874;2022-09-03T02:02:20;16.90;51.30
43920;DHT22;29578;51.946;5.874;2022-09-03T02:05:03;16.80;51.30
43920;DHT22;29578;51.946;5.874;2022-09-03T02:07:38;16.90;51.50
43920;DHT22;29578;51.946;5.874;2022-09-03T02:10:07;16.80;51.40
43920;DHT22;29578;51.946;5.874;2022-09-03T02:12:35;16.80;51.40
43920;DHT22;29578;51.946;5.874;2022-09-03T02:15:06;16.80;51.50
43920;DHT22;29578;51.946;5.874;2022-09-03T02:17:35;16.80;51.50
43920;DHT22;29578;51.946;5.874;2022-09-03T02:20:05;16.80;51.60
43920;DHT22;29578;51.946;5.874;2022-09-03T02:22:32;16.80;51.60
43920;DHT22;29578;51.946;5.874;2022-09-03T02:24:59;16.80;51.70
43920;DHT22;29578;51.946;5.874;2022-09-03T02:27:26;16.70;52.20
43920;DHT22;29578;51.946;5.874;2022-09-03T02:29:52;16.70;51.70
43920;DHT22;29578;51.946;5.874;2022-09-03T02:32:18;16.60;51.60
43920;DHT22;29578;51.946;5.874;2022-09-03T02:34:43;16.70;51.80
43920;DHT22;29578;51.946;5.874;2022-09-03T02:37:12;16.60;51.80
43920;DHT22;29578;51.946;5.874;2022-09-03T02:39:39;16.60;51.90
43920;DHT22;29578;51.946;5.874;2022-09-03T02:42:06;16.60;51.90
43920;DHT22;29578;51.946;5.874;2022-09-03T02:44:34;16.60;51.90
43920;DHT22;29578;51.946;5.874;2022-09-03T02:47:03;16.60;52.00
43920;DHT22;29578;51.946;5.874;2022-09-03T02:49:30;16.60;52.00
43920;DHT22;29578;51.946;5.874;2022-09-03T02:51:59;16.50;52.00
43920;DHT22;29578;51.946;5.874;2022-09-03T02:54:26;16.50;52.00
43920;DHT22;29578;51.946;5.874;2022-09-03T02:56:53;16.50;52.10
43920;DHT22;29578;51.946;5.874;2022-09-03T02:59:19;16.50;52.20
43920;DHT22;29578;51.946;5.874;2022-09-03T03:01:47;16.50;52.20
43920;DHT22;29578;51.946;5.874;2022-09-03T03:04:12;16.50;52.30
43920;DHT22;29578;51.946;5.874;2022-09-03T03:06:38;16.40;52.20
43920;DHT22;29578;51.946;5.874;2022-09-03T03:09:04;16.50;52.40
43920;DHT22;29578;51.946;5.874;2022-09-03T03:11:30;16.40;52.40
43920;DHT22;29578;51.946;5.874;2022-09-03T03:13:56;16.50;52.40
43920;DHT22;29578;51.946;5.874;2022-09-03T03:16:22;16.40;52.40
43920;DHT22;29578;51.946;5.874;2022-09-03T03:18:48;16.40;52.40
43920;DHT22;29578;51.946;5.874;2022-09-03T03:21:15;16.40;52.40
43920;DHT22;29578;51.946;5.874;2022-09-03T03:23:42;16.30;52.40
43920;DHT22;29578;51.946;5.874;2022-09-03T03:26:11;16.40;52.50
43920;DHT22;29578;51.946;5.874;2022-09-03T03:28:37;16.40;52.50
43920;DHT22;29578;51.946;5.874;2022-09-03T03:31:07;16.30;52.50
43920;DHT22;29578;51.946;5.874;2022-09-03T03:33:34;16.30;52.60
43920;DHT22;29578;51.946;5.874;2022-09-03T03:36:09;16.30;52.70
43920;DHT22;29578;51.946;5.874;2022-09-03T03:38:36;16.30;52.70
43920;DHT22;29578;51.946;5.874;2022-09-03T03:41:07;16.20;52.70
43920;DHT22;29578;51.946;5.874;2022-09-03T03:43:33;16.20;52.80
43920;DHT22;29578;51.946;5.874;2022-09-03T03:45:59;16.20;52.90
43920;DHT22;29578;51.946;5.874;2022-09-03T03:48:25;16.10;52.90
43920;DHT22;29578;51.946;5.874;2022-09-03T03:50:52;16.10;53.00
43920;DHT22;29578;51.946;5.874;2022-09-03T03:53:18;16.10;53.00
43920;DHT22;29578;51.946;5.874;2022-09-03T03:55:55;16.10;53.10
43920;DHT22;29578;51.946;5.874;2022-09-03T03:58:21;16.00;53.10
43920;DHT22;29578;51.946;5.874;2022-09-03T04:00:47;16.00;53.10
43920;DHT22;29578;51.946;5.874;2022-09-03T04:03:13;16.00;53.20
43920;DHT22;29578;51.946;5.874;2022-09-03T04:05:39;16.00;53.20
43920;DHT22;29578;51.946;5.874;2022-09-03T04:08:05;16.00;53.30
43920;DHT22;29578;51.946;5.874;2022-09-03T04:10:31;16.00;53.30
43920;DHT22;29578;51.946;5.874;2022-09-03T04:12:57;15.90;53.30
43920;DHT22;29578;51.946;5.874;2022-09-03T04:15:22;15.90;53.30
43920;DHT22;29578;51.946;5.874;2022-09-03T04:17:48;15.90;53.40
43920;DHT22;29578;51.946;5.874;2022-09-03T04:20:14;15.80;53.40
43920;DHT22;29578;51.946;5.874;2022-09-03T04:22:40;15.90;53.50
43920;DHT22;29578;51.946;5.874;2022-09-03T04:25:06;15.80;53.50
43920;DHT22;29578;51.946;5.874;2022-09-03T04:27:32;15.80;53.50
43920;DHT22;29578;51.946;5.874;2022-09-03T04:29:58;15.80;53.60
43920;DHT22;29578;51.946;5.874;2022-09-03T04:32:23;15.80;53.60
43920;DHT22;29578;51.946;5.874;2022-09-03T04:35:05;15.80;53.70
43920;DHT22;29578;51.946;5.874;2022-09-03T04:37:31;15.80;53.70
43920;DHT22;29578;51.946;5.874;2022-09-03T04:39:57;15.70;53.60
43920;DHT22;29578;51.946;5.874;2022-09-03T04:42:23;15.80;53.70
43920;DHT22;29578;51.946;5.874;2022-09-03T04:44:49;15.80;53.70
43920;DHT22;29578;51.946;5.874;2022-09-03T04:47:15;15.80;53.70
43920;DHT22;29578;51.946;5.874;2022-09-03T04:49:41;15.80;53.80
43920;DHT22;29578;51.946;5.874;2022-09-03T04:52:06;15.70;53.70
43920;DHT22;29578;51.946;5.874;2022-09-03T04:54:32;15.70;53.80
43920;DHT22;29578;51.946;5.874;2022-09-03T04:56:58;15.70;53.90
43920;DHT22;29578;51.946;5.874;2022-09-03T04:59:23;15.70;53.90
43920;DHT22;29578;51.946;5.874;2022-09-03T05:01:49;15.60;53.80
43920;DHT22;29578;51.946;5.874;2022-09-03T05:04:17;15.60;53.90
43920;DHT22;29578;51.946;5.874;2022-09-03T05:06:44;15.60;53.90
43920;DHT22;29578;51.946;5.874;2022-09-03T05:09:10;15.60;54.00
43920;DHT22;29578;51.946;5.874;2022-09-03T05:11:36;15.60;54.00
43920;DHT22;29578;51.946;5.874;2022-09-03T05:14:02;15.60;54.00
43920;DHT22;29578;51.946;5.874;2022-09-03T05:16:28;15.60;54.00
43920;DHT22;29578;51.946;5.874;2022-09-03T05:18:56;15.60;54.10
43920;DHT22;29578;51.946;5.874;2022-09-03T05:21:24;15.60;54.10
43920;DHT22;29578;51.946;5.874;2022-09-03T05:23:51;15.60;54.10
43920;DHT22;29578;51.946;5.874;2022-09-03T05:26:21;15.60;54.20
43920;DHT22;29578;51.946;5.874;2022-09-03T05:28:47;15.60;54.20
43920;DHT22;29578;51.946;5.874;2022-09-03T05:31:15;15.60;54.20
43920;DHT22;29578;51.946;5.874;2022-09-03T05:33:50;15.50;54.20
43920;DHT22;29578;51.946;5.874;2022-09-03T05:36:18;15.60;54.30
43920;DHT22;29578;51.946;5.874;2022-09-03T05:38:45;15.60;54.20
43920;DHT22;29578;51.946;5.874;2022-09-03T05:41:12;15.60;54.30
43920;DHT22;29578;51.946;5.874;2022-09-03T05:43:39;15.60;54.30
43920;DHT22;29578;51.946;5.874;2022-09-03T05:46:07;15.60;54.20
43920;DHT22;29578;51.946;5.874;2022-09-03T05:48:35;15.60;54.30
43920;DHT22;29578;51.946;5.874;2022-09-03T05:51:04;15.60;54.30
43920;DHT22;29578;51.946;5.874;2022-09-03T05:53:34;15.60;54.30
43920;DHT22;29578;51.946;5.874;2022-09-03T05:56:01;15.70;54.30
43920;DHT22;29578;51.946;5.874;2022-09-03T05:58:30;15.70;54.30
43920;DHT22;29578;51.946;5.874;2022-09-03T06:00:56;15.70;54.30
43920;DHT22;29578;51.946;5.874;2022-09-03T06:03:22;15.80;54.30
43920;DHT22;29578;51.946;5.874;2022-09-03T06:05:50;15.80;54.30
43920;DHT22;29578;51.946;5.874;2022-09-03T06:08:16;15.80;54.30
43920;DHT22;29578;51.946;5.874;2022-09-03T06:10:42;15.80;54.20
43920;DHT22;29578;51.946;5.874;2022-09-03T06:13:07;15.80;54.20
43920;DHT22;29578;51.946;5.874;2022-09-03T06:15:33;15.90;54.30
43920;DHT22;29578;51.946;5.874;2022-09-03T06:17:59;15.80;54.20
43920;DHT22;29578;51.946;5.874;2022-09-03T06:20:24;15.90;54.20
43920;DHT22;29578;51.946;5.874;2022-09-03T06:22:54;15.90;54.20
43920;DHT22;29578;51.946;5.874;2022-09-03T06:25:20;15.90;54.20
43920;DHT22;29578;51.946;5.874;2022-09-03T06:27:46;16.00;54.20
43920;DHT22;29578;51.946;5.874;2022-09-03T06:30:12;16.00;54.20
43920;DHT22;29578;51.946;5.874;2022-09-03T06:32:46;16.00;54.20
43920;DHT22;29578;51.946;5.874;2022-09-03T06:35:12;16.00;54.10
43920;DHT22;29578;51.946;5.874;2022-09-03T06:37:39;16.10;54.10
43920;DHT22;29578;51.946;5.874;2022-09-03T06:40:05;16.10;54.10
43920;DHT22;29578;51.946;5.874;2022-09-03T06:42:38;16.20;54.10
43920;DHT22;29578;51.946;5.874;2022-09-03T06:45:06;16.30;54.20
43920;DHT22;29578;51.946;5.874;2022-09-03T06:47:32;16.20;54.10
43920;DHT22;29578;51.946;5.874;2022-09-03T06:49:59;16.30;54.10
43920;DHT22;29578;51.946;5.874;2022-09-03T06:52:27;16.30;54.10
43920;DHT22;29578;51.946;5.874;2022-09-03T06:54:53;16.30;54.10
43920;DHT22;29578;51.946;5.874;2022-09-03T06:57:19;16.30;54.00
43920;DHT22;29578;51.946;5.874;2022-09-03T06:59:44;16.40;54.00
43920;DHT22;29578;51.946;5.874;2022-09-03T07:02:10;16.40;54.00
43920;DHT22;29578;51.946;5.874;2022-09-03T07:04:36;16.50;54.00
43920;DHT22;29578;51.946;5.874;2022-09-03T07:07:02;16.50;54.00
43920;DHT22;29578;51.946;5.874;2022-09-03T07:09:27;16.50;53.90
43920;DHT22;29578;51.946;5.874;2022-09-03T07:11:54;16.60;53.90
43920;DHT22;29578;51.946;5.874;2022-09-03T07:14:20;16.70;54.00
43920;DHT22;29578;51.946;5.874;2022-09-03T07:16:47;16.70;53.90
43920;DHT22;29578;51.946;5.874;2022-09-03T07:19:14;16.80;53.90
43920;DHT22;29578;51.946;5.874;2022-09-03T07:21:40;16.80;53.80
43920;DHT22;29578;51.946;5.874;2022-09-03T07:24:07;16.80;53.80
43920;DHT22;29578;51.946;5.874;2022-09-03T07:26:36;16.90;53.80
43920;DHT22;29578;51.946;5.874;2022-09-03T07:29:03;17.00;53.70
43920;DHT22;29578;51.946;5.874;2022-09-03T07:31:34;17.00;53.60
43920;DHT22;29578;51.946;5.874;2022-09-03T07:34:02;17.10;53.60
43920;DHT22;29578;51.946;5.874;2022-09-03T07:36:34;17.20;53.60
43920;DHT22;29578;51.946;5.874;2022-09-03T07:39:00;17.30;53.60
43920;DHT22;29578;51.946;5.874;2022-09-03T07:41:26;17.30;53.50
43920;DHT22;29578;51.946;5.874;2022-09-03T07:43:53;17.40;53.50
43920;DHT22;29578;51.946;5.874;2022-09-03T07:46:23;17.40;53.50
43920;DHT22;29578;51.946;5.874;2022-09-03T07:48:50;17.50;53.50
43920;DHT22;29578;51.946;5.874;2022-09-03T07:51:18;17.70;53.40
43920;DHT22;29578;51.946;5.874;2022-09-03T07:53:45;17.70;53.30
43920;DHT22;29578;51.946;5.874;2022-09-03T07:56:11;17.80;53.10
43920;DHT22;29578;51.946;5.874;2022-09-03T07:58:38;17.80;53.00
43920;DHT22;29578;51.946;5.874;2022-09-03T08:01:10;18.00;53.00
43920;DHT22;29578;51.946;5.874;2022-09-03T08:03:38;18.10;52.90
43920;DHT22;29578;51.946;5.874;2022-09-03T08:06:06;18.10;52.70
43920;DHT22;29578;51.946;5.874;2022-09-03T08:08:34;18.30;52.60
43920;DHT22;29578;51.946;5.874;2022-09-03T08:11:09;18.50;52.50
43920;DHT22;29578;51.946;5.874;2022-09-03T08:13:39;18.60;52.20
43920;DHT22;29578;51.946;5.874;2022-09-03T08:16:06;18.80;52.00
43920;DHT22;29578;51.946;5.874;2022-09-03T08:18:33;19.10;51.80
43920;DHT22;29578;51.946;5.874;2022-09-03T08:21:03;19.30;51.70
43920;DHT22;29578;51.946;5.874;2022-09-03T08:23:32;19.50;51.50
43920;DHT22;29578;51.946;5.874;2022-09-03T08:25:59;19.70;51.30
43920;DHT22;29578;51.946;5.874;2022-09-03T08:28:26;19.90;51.10
43920;DHT22;29578;51.946;5.874;2022-09-03T08:30:52;20.10;51.00
43920;DHT22;29578;51.946;5.874;2022-09-03T08:33:18;20.30;50.80
43920;DHT22;29578;51.946;5.874;2022-09-03T08:35:55;20.40;50.60
43920;DHT22;29578;51.946;5.874;2022-09-03T08:38:21;20.70;50.60
43920;DHT22;29578;51.946;5.874;2022-09-03T08:40:49;20.80;50.40
43920;DHT22;29578;51.946;5.874;2022-09-03T08:43:16;21.00;50.30
43920;DHT22;29578;51.946;5.874;2022-09-03T08:45:43;21.10;50.20
43920;DHT22;29578;51.946;5.874;2022-09-03T08:48:15;21.30;50.10
43920;DHT22;29578;51.946;5.874;2022-09-03T08:50:44;21.40;50.00
43920;DHT22;29578;51.946;5.874;2022-09-03T08:53:23;21.50;49.90
43920;DHT22;29578;51.946;5.874;2022-09-03T08:55:54;21.70;49.90
43920;DHT22;29578;51.946;5.874;2022-09-03T08:58:25;21.80;49.80
43920;DHT22;29578;51.946;5.874;2022-09-03T09:01:05;21.90;49.70
43920;DHT22;29578;51.946;5.874;2022-09-03T09:09:27;22.40;49.40
43920;DHT22;29578;51.946;5.874;2022-09-03T09:12:19;22.50;49.30
43920;DHT22;29578;51.946;5.874;2022-09-03T09:15:03;22.60;49.10
43920;DHT22;29578;51.946;5.874;2022-09-03T09:17:44;22.80;49.10
43920;DHT22;29578;51.946;5.874;2022-09-03T09:20:39;22.80;49.10
43920;DHT22;29578;51.946;5.874;2022-09-03T09:23:14;23.00;49.00
43920;DHT22;29578;51.946;5.874;2022-09-03T09:25:47;23.10;49.00
43920;DHT22;29578;51.946;5.874;2022-09-03T09:28:19;23.20;48.90
43920;DHT22;29578;51.946;5.874;2022-09-03T09:30:48;23.20;48.90
43920;DHT22;29578;51.946;5.874;2022-09-03T09:33:15;23.20;49.00
43920;DHT22;29578;51.946;5.874;2022-09-03T09:35:42;23.30;49.00
43920;DHT22;29578;51.946;5.874;2022-09-03T09:38:09;23.40;48.90
43920;DHT22;29578;51.946;5.874;2022-09-03T09:40:38;23.50;48.90
43920;DHT22;29578;51.946;5.874;2022-09-03T09:43:07;23.40;48.70
43920;DHT22;29578;51.946;5.874;2022-09-03T09:45:35;23.60;48.90
43920;DHT22;29578;51.946;5.874;2022-09-03T09:48:08;23.50;48.80
43920;DHT22;29578;51.946;5.874;2022-09-03T09:50:35;23.60;48.80
43920;DHT22;29578;51.946;5.874;2022-09-03T09:53:05;23.60;48.70
43920;DHT22;29578;51.946;5.874;2022-09-03T09:55:55;23.70;48.80
43920;DHT22;29578;51.946;5.874;2022-09-03T09:58:23;23.70;48.80
43920;DHT22;29578;51.946;5.874;2022-09-03T10:01:09;23.60;48.70
43920;DHT22;29578;51.946;5.874;2022-09-03T10:03:48;23.70;48.70
43920;DHT22;29578;51.946;5.874;2022-09-03T10:06:15;23.70;48.70
43920;DHT22;29578;51.946;5.874;2022-09-03T10:09:13;23.70;48.60
43920;DHT22;29578;51.946;5.874;2022-09-03T10:11:44;23.70;48.50
43920;DHT22;29578;51.946;5.874;2022-09-03T10:14:22;23.70;48.50
43920;DHT22;29578;51.946;5.874;2022-09-03T10:16:54;23.80;48.50
43920;DHT22;29578;51.946;5.874;2022-09-03T10:19:28;23.80;48.50
43920;DHT22;29578;51.946;5.874;2022-09-03T10:22:11;23.70;48.30
43920;DHT22;29578;51.946;5.874;2022-09-03T10:24:58;23.80;48.20
43920;DHT22;29578;51.946;5.874;2022-09-03T10:27:23;23.80;48.20
43920;DHT22;29578;51.946;5.874;2022-09-03T10:29:50;23.80;48.20
43920;DHT22;29578;51.946;5.874;2022-09-03T10:32:32;23.80;48.10
43920;DHT22;29578;51.946;5.874;2022-09-03T10:35:23;23.80;48.10
43920;DHT22;29578;51.946;5.874;2022-09-03T10:40:41;23.90;48.00
43920;DHT22;29578;51.946;5.874;2022-09-03T10:43:19;23.80;47.80
43920;DHT22;29578;51.946;5.874;2022-09-03T10:46:05;23.90;48.40
43920;DHT22;29578;51.946;5.874;2022-09-03T10:51:41;23.90;47.70
43920;DHT22;29578;51.946;5.874;2022-09-03T10:54:36;24.00;47.60
43920;DHT22;29578;51.946;5.874;2022-09-03T11:00:08;24.00;47.60
43920;DHT22;29578;51.946;5.874;2022-09-03T11:05:46;24.10;47.30
43920;DHT22;29578;51.946;5.874;2022-09-03T11:08:22;24.10;47.90
43920;DHT22;29578;51.946;5.874;2022-09-03T11:10:55;24.10;47.10
43920;DHT22;29578;51.946;5.874;2022-09-03T11:13:30;24.30;47.20
43920;DHT22;29578;51.946;5.874;2022-09-03T11:16:07;24.30;47.00
43920;DHT22;29578;51.946;5.874;2022-09-03T11:18:43;24.50;46.90
43920;DHT22;29578;51.946;5.874;2022-09-03T11:21:13;24.50;46.80
43920;DHT22;29578;51.946;5.874;2022-09-03T11:23:46;24.60;46.70
43920;DHT22;29578;51.946;5.874;2022-09-03T11:26:16;24.60;46.50
43920;DHT22;29578;51.946;5.874;2022-09-03T11:29:03;24.70;46.40
43920;DHT22;29578;51.946;5.874;2022-09-03T11:31:44;24.70;46.30
43920;DHT22;29578;51.946;5.874;2022-09-03T11:34:30;24.80;46.30
43920;DHT22;29578;51.946;5.874;2022-09-03T11:39:39;25.10;46.00
43920;DHT22;29578;51.946;5.874;2022-09-03T11:42:10;25.10;45.90
43920;DHT22;29578;51.946;5.874;2022-09-03T11:44:43;25.20;45.70
43920;DHT22;29578;51.946;5.874;2022-09-03T11:47:22;25.40;45.60
43920;DHT22;29578;51.946;5.874;2022-09-03T11:49:50;25.50;45.60
43920;DHT22;29578;51.946;5.874;2022-09-03T11:52:31;25.60;45.50
43920;DHT22;29578;51.946;5.874;2022-09-03T11:54:57;25.70;45.40
43920;DHT22;29578;51.946;5.874;2022-09-03T11:57:31;25.60;45.30
43920;DHT22;29578;51.946;5.874;2022-09-03T12:00:14;25.70;45.30
43920;DHT22;29578;51.946;5.874;2022-09-03T12:02:46;25.70;45.30
43920;DHT22;29578;51.946;5.874;2022-09-03T12:05:26;25.80;45.20
43920;DHT22;29578;51.946;5.874;2022-09-03T12:08:21;25.80;45.20
43920;DHT22;29578;51.946;5.874;2022-09-03T12:14:00;25.90;45.20
43920;DHT22;29578;51.946;5.874;2022-09-03T12:16:47;25.90;45.10
43920;DHT22;29578;51.946;5.874;2022-09-03T12:19:42;26.00;45.10
43920;DHT22;29578;51.946;5.874;2022-09-03T12:22:14;26.00;45.00
43920;DHT22;29578;51.946;5.874;2022-09-03T12:24:41;26.00;45.00
43920;DHT22;29578;51.946;5.874;2022-09-03T12:27:19;26.10;45.00
43920;DHT22;29578;51.946;5.874;2022-09-03T12:29:53;26.10;44.90
43920;DHT22;29578;51.946;5.874;2022-09-03T12:32:23;26.10;44.90
43920;DHT22;29578;51.946;5.874;2022-09-03T12:34:49;26.10;44.80
43920;DHT22;29578;51.946;5.874;2022-09-03T12:37:21;26.20;44.80
43920;DHT22;29578;51.946;5.874;2022-09-03T12:39:51;26.30;44.80
43920;DHT22;29578;51.946;5.874;2022-09-03T12:42:30;26.30;44.70
43920;DHT22;29578;51.946;5.874;2022-09-03T12:45:10;26.30;44.80
43920;DHT22;29578;51.946;5.874;2022-09-03T12:47:38;26.40;44.80
43920;DHT22;29578;51.946;5.874;2022-09-03T12:50:10;26.40;44.90
43920;DHT22;29578;51.946;5.874;2022-09-03T12:52:44;26.40;44.90
43920;DHT22;29578;51.946;5.874;2022-09-03T12:55:24;26.40;44.90
43920;DHT22;29578;51.946;5.874;2022-09-03T12:58:01;26.40;44.90
43920;DHT22;29578;51.946;5.874;2022-09-03T13:00:32;26.50;44.80
43920;DHT22;29578;51.946;5.874;2022-09-03T13:03:03;26.60;44.80
43920;DHT22;29578;51.946;5.874;2022-09-03T13:05:35;26.50;44.80
43920;DHT22;29578;51.946;5.874;2022-09-03T13:08:04;26.50;44.80
43920;DHT22;29578;51.946;5.874;2022-09-03T13:10:35;26.50;44.90
43920;DHT22;29578;51.946;5.874;2022-09-03T13:13:18;26.60;44.90
43920;DHT22;29578;51.946;5.874;2022-09-03T13:16:23;26.60;44.80
43920;DHT22;29578;51.946;5.874;2022-09-03T13:19:05;26.50;44.80
43920;DHT22;29578;51.946;5.874;2022-09-03T13:24:52;26.70;44.80
43920;DHT22;29578;51.946;5.874;2022-09-03T13:27:29;26.60;44.70
43920;DHT22;29578;51.946;5.874;2022-09-03T13:30:20;26.60;44.80
43920;DHT22;29578;51.946;5.874;2022-09-03T13:35:36;26.50;45.00
43920;DHT22;29578;51.946;5.874;2022-09-03T13:41:11;26.50;45.10
43920;DHT22;29578;51.946;5.874;2022-09-03T13:43:50;26.40;45.00
43920;DHT22;29578;51.946;5.874;2022-09-03T13:52:33;26.30;45.20
43920;DHT22;29578;51.946;5.874;2022-09-03T13:55:12;26.30;45.20
43920;DHT22;29578;51.946;5.874;2022-09-03T13:57:48;26.30;45.20
43920;DHT22;29578;51.946;5.874;2022-09-03T14:00:30;26.30;45.20
43920;DHT22;29578;51.946;5.874;2022-09-03T14:03:09;26.30;45.20
43920;DHT22;29578;51.946;5.874;2022-09-03T14:06:01;26.30;45.20
43920;DHT22;29578;51.946;5.874;2022-09-03T14:11:26;26.30;45.20
43920;DHT22;29578;51.946;5.874;2022-09-03T14:14:11;26.20;45.20
43920;DHT22;29578;51.946;5.874;2022-09-03T14:16:48;26.20;45.20
43920;DHT22;29578;51.946;5.874;2022-09-03T14:22:38;26.20;45.10
43920;DHT22;29578;51.946;5.874;2022-09-03T14:25:23;26.30;45.10
43920;DHT22;29578;51.946;5.874;2022-09-03T14:27:50;26.20;45.10
43920;DHT22;29578;51.946;5.874;2022-09-03T14:30:39;26.30;45.10
43920;DHT22;29578;51.946;5.874;2022-09-03T14:33:23;26.20;45.10
43920;DHT22;29578;51.946;5.874;2022-09-03T14:35:58;26.20;45.10
43920;DHT22;29578;51.946;5.874;2022-09-03T14:39:11;26.20;45.10
43920;DHT22;29578;51.946;5.874;2022-09-03T14:41:30;26.30;45.10
43920;DHT22;29578;51.946;5.874;2022-09-03T14:44:21;26.30;45.10
43920;DHT22;29578;51.946;5.874;2022-09-03T14:47:18;26.30;45.60
43920;DHT22;29578;51.946;5.874;2022-09-03T14:50:11;26.30;45.00
43920;DHT22;29578;51.946;5.874;2022-09-03T14:56:12;26.30;44.90
43920;DHT22;29578;51.946;5.874;2022-09-03T15:01:28;26.30;44.90
43920;DHT22;29578;51.946;5.874;2022-09-03T15:04:16;26.30;44.90
43920;DHT22;29578;51.946;5.874;2022-09-03T15:07:08;26.30;44.90
43920;DHT22;29578;51.946;5.874;2022-09-03T15:09:55;26.30;44.80
43920;DHT22;29578;51.946;5.874;2022-09-03T15:12:36;26.30;44.80
43920;DHT22;29578;51.946;5.874;2022-09-03T15:20:51;26.40;44.80
43920;DHT22;29578;51.946;5.874;2022-09-03T15:23:30;26.40;44.70
43920;DHT22;29578;51.946;5.874;2022-09-03T15:26:19;26.40;44.70
43920;DHT22;29578;51.946;5.874;2022-09-03T15:31:56;26.40;44.60
43920;DHT22;29578;51.946;5.874;2022-09-03T15:34:58;26.50;44.60
43920;DHT22;29578;51.946;5.874;2022-09-03T15:37:38;26.50;44.60
43920;DHT22;29578;51.946;5.874;2022-09-03T15:40:26;26.50;44.60
43920;DHT22;29578;51.946;5.874;2022-09-03T15:43:02;26.50;44.40
43920;DHT22;29578;51.946;5.874;2022-09-03T15:48:31;26.50;44.40
43920;DHT22;29578;51.946;5.874;2022-09-03T15:51:16;26.50;45.00
43920;DHT22;29578;51.946;5.874;2022-09-03T15:54:09;26.60;44.50
43920;DHT22;29578;51.946;5.874;2022-09-03T15:56:57;26.50;44.40
43920;DHT22;29578;51.946;5.874;2022-09-03T16:02:30;26.50;44.50
43920;DHT22;29578;51.946;5.874;2022-09-03T16:05:07;26.50;44.50
43920;DHT22;29578;51.946;5.874;2022-09-03T16:10:49;26.50;44.50
43920;DHT22;29578;51.946;5.874;2022-09-03T16:16:18;26.50;44.60
43920;DHT22;29578;51.946;5.874;2022-09-03T16:19:08;26.40;44.50
43920;DHT22;29578;51.946;5.874;2022-09-03T16:21:45;26.40;44.60
43920;DHT22;29578;51.946;5.874;2022-09-03T16:24:25;26.40;44.60
43920;DHT22;29578;51.946;5.874;2022-09-03T16:27:06;26.30;44.60
43920;DHT22;29578;51.946;5.874;2022-09-03T16:29:34;26.30;44.60
43920;DHT22;29578;51.946;5.874;2022-09-03T16:35:16;26.40;44.70
43920;DHT22;29578;51.946;5.874;2022-09-03T16:38:08;26.30;44.70
43920;DHT22;29578;51.946;5.874;2022-09-03T16:41:09;26.30;44.80
43920;DHT22;29578;51.946;5.874;2022-09-03T16:43:52;26.20;44.70
43920;DHT22;29578;51.946;5.874;2022-09-03T16:49:54;26.10;44.80
43920;DHT22;29578;51.946;5.874;2022-09-03T16:52:37;26.10;44.90
43920;DHT22;29578;51.946;5.874;2022-09-03T16:58:21;26.10;45.00
43920;DHT22;29578;51.946;5.874;2022-09-03T17:01:03;26.00;45.10
43920;DHT22;29578;51.946;5.874;2022-09-03T17:06:54;25.90;45.30
43920;DHT22;29578;51.946;5.874;2022-09-03T17:12:36;25.80;45.60
43920;DHT22;29578;51.946;5.874;2022-09-03T17:15:18;25.70;45.70
43920;DHT22;29578;51.946;5.874;2022-09-03T17:26:45;25.40;46.20
43920;DHT22;29578;51.946;5.874;2022-09-03T17:29:29;25.30;46.20
43920;DHT22;29578;51.946;5.874;2022-09-03T17:32:16;25.30;46.30
43920;DHT22;29578;51.946;5.874;2022-09-03T17:35:10;25.20;46.40
43920;DHT22;29578;51.946;5.874;2022-09-03T17:37:55;25.20;46.40
43920;DHT22;29578;51.946;5.874;2022-09-03T17:41:01;25.10;46.50
43920;DHT22;29578;51.946;5.874;2022-09-03T17:46:28;25.00;46.90
43920;DHT22;29578;51.946;5.874;2022-09-03T17:49:00;24.90;47.10
43920;DHT22;29578;51.946;5.874;2022-09-03T17:54:43;24.70;47.30
43920;DHT22;29578;51.946;5.874;2022-09-03T17:57:21;24.60;47.50
43920;DHT22;29578;51.946;5.874;2022-09-03T18:00:04;24.50;47.70
43920;DHT22;29578;51.946;5.874;2022-09-03T18:02:49;24.40;47.80